Time;durP1;ratioP1;P1;durP2;ratioP2;P2;SDS_P1;SDS_P2;PMS_P1;PMS_P2;Temp;Humidity;BMP_temperature;BMP_pressure;BME280_temperature;BME280_humidity;BME280_pressure;Samples;Min_cycle;Max_cycle;Signal;HPM_P1;HPM_P2
2023/06/04 00:02:12;;;;;;;1.10;1.00;;;21.50;40.50;;;;;;5034864;28;20247;-84
2023/06/04 00:04:38;;;;;;;1.40;1.03;;;21.50;40.50;;;;;;5035031;28;20218;-83
2023/06/04 00:07:04;;;;;;;1.07;0.80;;;21.50;40.50;;;;;;5031917;28;20284;-84
2023/06/04 00:09:30;;;;;;;1.10;1.00;;;21.50;40.50;;;;;;5028623;28;20592;-83
2023/06/04 00:11:55;;;;;;;1.10;1.00;;;21.50;40.50;;;;;;5026368;28;20456;-84
2023/06/04 00:14:21;;;;;;;1.13;0.93;;;21.50;40.50;;;;;;5029235;28;20263;-83
2023/06/04 00:16:47;;;;;;;0.90;0.90;;;21.50;40.50;;;;;;5010857;28;20235;-84
2023/06/04 00:19:12;;;;;;;1.60;0.90;;;21.50;40.50;;;;;;5029435;28;20725;-84
2023/06/04 00:21:38;;;;;;;1.00;0.80;;;21.50;40.50;;;;;;5026891;28;20292;-86
2023/06/04 00:24:03;;;;;;;0.93;0.90;;;21.50;40.50;;;;;;5025866;28;20226;-86
2023/06/04 00:26:29;;;;;;;1.10;1.00;;;21.50;40.50;;;;;;5029325;28;20226;-84
2023/06/04 00:28:55;;;;;;;1.10;1.00;;;21.50;40.50;;;;;;5023862;28;20230;-84
2023/06/04 00:31:21;;;;;;;1.00;0.90;;;21.50;41.30;;;;;;5026249;28;20285;-84
2023/06/04 00:33:50;;;;;;;1.00;0.83;;;21.50;41.30;;;;;;5023114;28;20219;-84
2023/06/04 00:36:15;;;;;;;0.97;0.97;;;21.50;40.50;;;;;;5020699;28;20967;-83
2023/06/04 00:38:41;;;;;;;1.03;0.97;;;21.50;40.50;;;;;;5030244;28;20459;-83
2023/06/04 00:41:06;;;;;;;0.90;0.90;;;21.50;40.50;;;;;;5018976;28;20233;-85
2023/06/04 00:43:32;;;;;;;0.90;0.90;;;21.50;40.50;;;;;;5031115;28;20238;-84
2023/06/04 00:45:58;;;;;;;1.10;1.00;;;21.50;40.50;;;;;;5024036;28;20218;-84
2023/06/04 00:48:27;;;;;;;0.90;0.90;;;21.50;40.50;;;;;;5029400;28;20238;-85
2023/06/04 00:50:54;;;;;;;0.90;0.90;;;21.50;40.60;;;;;;5027468;28;20993;-83
2023/06/04 00:53:21;;;;;;;1.07;1.00;;;21.50;40.50;;;;;;5030227;28;20662;-84
2023/06/04 00:55:47;;;;;;;1.23;1.13;;;21.50;40.50;;;;;;5030761;28;21049;-86
2023/06/04 00:58:15;;;;;;;1.17;1.07;;;21.50;40.50;;;;;;5033964;28;20466;-88
2023/06/04 01:00:42;;;;;;;0.90;0.90;;;21.50;40.50;;;;;;5008854;28;22117;-85
2023/06/04 01:03:17;;;;;;;0.80;0.80;;;21.50;40.50;;;;;;5020438;28;20471;-84
2023/06/04 01:05:51;;;;;;;1.10;1.00;;;21.50;40.50;;;;;;5015414;28;20466;-84
2023/06/04 01:08:18;;;;;;;1.10;1.00;;;21.50;40.50;;;;;;5023083;28;20566;-85
2023/06/04 01:10:56;;;;;;;1.10;1.00;;;21.50;40.50;;;;;;5014542;28;20983;-83
2023/06/04 01:13:22;;;;;;;1.43;1.00;;;21.50;40.50;;;;;;5036329;28;21125;-84
2023/06/04 01:15:48;;;;;;;0.83;0.83;;;21.50;40.60;;;;;;5033582;28;20473;-83
2023/06/04 01:18:29;;;;;;;0.97;0.93;;;21.50;40.50;;;;;;5035669;28;20454;-85
2023/06/04 01:21:12;;;;;;;1.10;1.00;;;21.50;40.50;;;;;;5039251;28;20218;-84
2023/06/04 01:23:46;;;;;;;0.97;0.90;;;21.50;40.50;;;;;;5034291;28;20474;-84
2023/06/04 01:26:13;;;;;;;1.00;0.90;;;21.50;40.50;;;;;;5038589;28;20937;-83
2023/06/04 01:28:39;;;;;;;1.03;0.93;;;21.40;40.50;;;;;;5038267;28;20550;-83
2023/06/04 01:31:07;;;;;;;0.80;0.80;;;21.40;40.50;;;;;;5035474;28;20522;-86
2023/06/04 01:33:33;;;;;;;1.20;1.10;;;21.50;40.50;;;;;;5038767;28;20469;-83
2023/06/04 01:35:58;;;;;;;1.00;0.90;;;21.40;40.50;;;;;;5028059;28;20451;-84
2023/06/04 01:38:24;;;;;;;1.83;0.83;;;21.40;40.50;;;;;;5035799;28;20221;-86
2023/06/04 01:40:50;;;;;;;2.03;1.10;;;21.40;40.50;;;;;;5030296;28;20325;-86
2023/06/04 01:43:16;;;;;;;1.10;1.00;;;21.40;40.50;;;;;;5028891;28;20223;-84
2023/06/04 01:45:42;;;;;;;1.10;1.00;;;21.40;40.50;;;;;;4995729;28;20820;-83
2023/06/04 01:48:07;;;;;;;3.73;1.07;;;21.40;40.50;;;;;;5029017;28;20245;-83
2023/06/04 01:50:33;;;;;;;1.03;0.93;;;21.40;40.50;;;;;;4999416;28;20226;-85
2023/06/04 01:52:59;;;;;;;1.10;1.00;;;21.40;40.50;;;;;;5034666;28;20228;-84
2023/06/04 01:55:25;;;;;;;1.03;0.93;;;21.40;40.50;;;;;;5022595;28;20226;-83
2023/06/04 01:57:51;;;;;;;0.80;0.80;;;21.40;40.50;;;;;;5009984;28;20455;-85
2023/06/04 02:00:17;;;;;;;1.10;1.10;;;21.40;40.50;;;;;;5025434;28;20524;-84
2023/06/04 02:02:45;;;;;;;1.17;1.07;;;21.40;40.50;;;;;;5032702;28;20280;-86
2023/06/04 02:05:11;;;;;;;1.20;1.10;;;21.40;40.50;;;;;;5010368;28;20729;-85
2023/06/04 02:07:41;;;;;;;1.30;1.20;;;21.40;40.50;;;;;;5023538;28;20505;-88
2023/06/04 02:10:18;;;;;;;1.10;1.00;;;21.40;40.50;;;;;;5017757;28;20481;-85
2023/06/04 02:13:03;;;;;;;1.10;1.00;;;21.40;40.50;;;;;;5032429;28;20494;-85
2023/06/04 02:15:30;;;;;;;1.20;0.90;;;21.40;40.50;;;;;;5037207;28;20454;-84
2023/06/04 02:17:59;;;;;;;1.20;1.10;;;21.40;40.50;;;;;;5030233;28;20455;-84
2023/06/04 02:20:28;;;;;;;1.13;1.03;;;21.40;40.50;;;;;;5013430;28;20828;-84
2023/06/04 02:22:55;;;;;;;1.03;0.93;;;21.40;40.50;;;;;;5035065;28;20540;-84
2023/06/04 02:25:21;;;;;;;1.20;1.10;;;21.40;40.50;;;;;;5028157;28;20530;-83
2023/06/04 02:27:47;;;;;;;1.10;1.00;;;21.40;40.50;;;;;;5022835;28;20480;-83
2023/06/04 02:30:13;;;;;;;1.80;0.97;;;21.40;40.50;;;;;;5032829;28;20462;-85
2023/06/04 02:32:39;;;;;;;1.20;1.10;;;21.40;40.50;;;;;;5034626;28;20215;-87
2023/06/04 02:35:05;;;;;;;1.20;1.10;;;21.40;40.50;;;;;;5029686;28;20633;-84
2023/06/04 02:37:30;;;;;;;1.20;1.10;;;21.40;40.50;;;;;;5030110;28;20237;-84
2023/06/04 02:39:56;;;;;;;1.17;1.10;;;21.40;40.50;;;;;;5034729;28;20226;-83
2023/06/04 02:42:21;;;;;;;1.07;1.00;;;21.40;40.50;;;;;;5024218;28;20225;-86
2023/06/04 02:44:47;;;;;;;1.40;1.10;;;21.40;40.50;;;;;;5007149;28;20301;-86
2023/06/04 02:47:12;;;;;;;1.20;1.10;;;21.40;40.50;;;;;;5006662;28;20218;-83
2023/06/04 02:49:38;;;;;;;1.40;1.00;;;21.40;40.50;;;;;;5009488;28;22135;-84
2023/06/04 02:52:03;;;;;;;1.17;1.07;;;21.40;40.50;;;;;;5014900;28;20218;-83
2023/06/04 02:54:29;;;;;;;1.23;1.13;;;21.40;40.50;;;;;;5030108;28;20726;-84
2023/06/04 02:56:54;;;;;;;1.20;1.10;;;21.40;40.50;;;;;;5025064;28;20226;-84
2023/06/04 02:59:20;;;;;;;1.20;1.10;;;21.40;40.50;;;;;;5010973;28;20230;-83
2023/06/04 03:01:46;;;;;;;1.50;1.40;;;21.40;40.50;;;;;;5013768;28;20272;-83
2023/06/04 03:04:15;;;;;;;1.00;1.00;;;21.40;40.50;;;;;;5029306;28;20222;-85
2023/06/04 03:06:44;;;;;;;1.30;1.20;;;21.40;40.50;;;;;;5031306;28;20303;-82
2023/06/04 03:09:10;;;;;;;1.10;1.00;;;21.40;40.50;;;;;;5027774;28;20478;-83
2023/06/04 03:11:36;;;;;;;1.33;1.23;;;21.40;40.50;;;;;;5030071;28;20471;-83
2023/06/04 03:14:01;;;;;;;1.40;1.30;;;21.40;40.50;;;;;;5028730;28;20456;-83
2023/06/04 03:16:27;;;;;;;1.30;1.20;;;21.40;40.50;;;;;;5013321;28;20226;-84
2023/06/04 03:18:53;;;;;;;1.27;1.17;;;21.40;40.50;;;;;;5023365;28;20451;-83
2023/06/04 03:21:18;;;;;;;1.10;1.00;;;21.40;40.50;;;;;;5021529;28;20320;-85
2023/06/04 03:23:44;;;;;;;1.20;1.10;;;21.30;40.40;;;;;;5030788;28;21288;-84
2023/06/04 03:26:12;;;;;;;1.27;1.17;;;21.40;40.50;;;;;;5005886;28;20708;-83
2023/06/04 03:28:38;;;;;;;1.20;1.10;;;21.30;40.30;;;;;;5006067;28;20283;-85
2023/06/04 03:31:03;;;;;;;1.23;1.13;;;21.40;40.50;;;;;;5018489;28;20920;-84
2023/06/04 03:33:29;;;;;;;2.30;1.10;;;21.30;40.30;;;;;;5028280;28;20276;-84
2023/06/04 03:35:58;;;;;;;1.13;1.03;;;21.40;40.50;;;;;;5024010;28;20775;-84
2023/06/04 03:38:24;;;;;;;1.20;1.10;;;21.40;40.50;;;;;;5033043;28;20241;-85
2023/06/04 03:40:52;;;;;;;1.30;1.20;;;21.30;40.60;;;;;;5030041;28;20447;-86
2023/06/04 03:43:21;;;;;;;1.20;1.10;;;21.30;40.30;;;;;;5014802;28;20464;-84
2023/06/04 03:45:46;;;;;;;1.30;1.20;;;21.30;40.30;;;;;;5025682;28;22982;-85
2023/06/04 03:48:12;;;;;;;1.27;1.17;;;21.30;40.30;;;;;;5019461;28;21044;-87
2023/06/04 03:50:37;;;;;;;1.27;1.17;;;21.30;40.30;;;;;;5026342;28;20239;-85
2023/06/04 03:53:06;;;;;;;1.57;1.47;;;21.30;40.10;;;;;;5030612;28;20245;-85
2023/06/04 03:55:32;;;;;;;1.63;1.53;;;21.30;39.80;;;;;;5033624;28;20643;-85
2023/06/04 03:57:58;;;;;;;1.40;1.30;;;21.30;39.50;;;;;;5023505;28;20459;-84
2023/06/04 04:00:23;;;;;;;1.20;1.10;;;21.30;39.30;;;;;;5027993;28;20809;-84
2023/06/04 04:02:49;;;;;;;1.13;1.03;;;21.30;39.10;;;;;;5030282;28;20523;-86
2023/06/04 04:05:15;;;;;;;1.30;1.20;;;21.30;39.60;;;;;;5013585;28;20234;-84
2023/06/04 04:07:41;;;;;;;1.57;1.47;;;21.30;38.90;;;;;;5027344;28;20870;-83
2023/06/04 04:10:07;;;;;;;1.50;1.40;;;21.30;38.80;;;;;;5016650;28;20284;-83
2023/06/04 04:12:32;;;;;;;1.20;1.10;;;21.30;38.60;;;;;;5028671;28;20305;-84
2023/06/04 04:14:58;;;;;;;1.50;1.40;;;21.30;38.50;;;;;;5028594;28;20512;-83
2023/06/04 04:17:24;;;;;;;1.40;1.30;;;21.20;38.30;;;;;;5023608;28;20249;-85
2023/06/04 04:19:49;;;;;;;1.33;1.23;;;21.30;38.20;;;;;;5025797;28;20333;-83
2023/06/04 04:22:17;;;;;;;1.50;1.40;;;21.20;38.10;;;;;;5010794;28;20223;-85
2023/06/04 04:24:43;;;;;;;1.10;1.00;;;21.30;38.20;;;;;;5025954;28;20283;-85
2023/06/04 04:27:10;;;;;;;1.50;1.40;;;21.20;38.00;;;;;;5013033;28;20467;-89
2023/06/04 04:29:36;;;;;;;1.27;1.17;;;21.20;38.00;;;;;;5015491;28;20479;-86
2023/06/04 04:32:10;;;;;;;1.30;1.20;;;21.20;38.00;;;;;;5020287;28;20970;-86
2023/06/04 04:34:37;;;;;;;1.07;0.97;;;21.20;38.10;;;;;;5024320;28;20229;-86
2023/06/04 04:37:03;;;;;;;1.37;1.27;;;21.20;38.20;;;;;;5025841;28;20467;-85
2023/06/04 04:39:29;;;;;;;1.20;1.10;;;21.30;38.40;;;;;;5026986;28;20918;-87
2023/06/04 04:41:55;;;;;;;1.23;1.07;;;21.30;38.50;;;;;;5027701;28;20233;-85
2023/06/04 04:44:20;;;;;;;1.13;1.03;;;21.30;38.60;;;;;;5009062;28;21062;-88
2023/06/04 04:46:48;;;;;;;1.10;1.03;;;21.30;38.70;;;;;;5031712;28;20467;-86
2023/06/04 04:49:13;;;;;;;1.30;1.20;;;21.30;38.70;;;;;;5015643;28;20236;-86
2023/06/04 04:51:39;;;;;;;1.33;1.23;;;21.30;38.80;;;;;;5010293;28;20460;-88
2023/06/04 04:54:05;;;;;;;1.20;1.10;;;21.30;38.90;;;;;;5031402;28;20242;-86
2023/06/04 04:56:36;;;;;;;1.10;1.00;;;21.30;38.90;;;;;;5028316;28;20582;-86
2023/06/04 04:59:02;;;;;;;1.20;1.10;;;21.30;39.10;;;;;;5016308;28;20234;-86
2023/06/04 05:01:28;;;;;;;1.40;1.30;;;21.30;39.80;;;;;;5033303;28;20455;-85
2023/06/04 05:03:53;;;;;;;1.10;1.00;;;21.30;39.00;;;;;;5019074;28;20308;-88
2023/06/04 05:06:19;;;;;;;1.33;1.23;;;21.30;39.10;;;;;;5026465;28;26130;-87
2023/06/04 05:08:45;;;;;;;1.20;1.10;;;21.30;39.20;;;;;;5022291;28;20325;-85
2023/06/04 05:11:10;;;;;;;1.10;1.00;;;21.30;39.20;;;;;;5025456;28;20230;-87
2023/06/04 05:13:36;;;;;;;1.10;1.00;;;21.40;39.30;;;;;;5008560;28;20565;-86
2023/06/04 05:16:11;;;;;;;1.30;1.20;;;21.40;39.30;;;;;;5016590;28;20222;-86
2023/06/04 05:18:44;;;;;;;1.10;1.00;;;21.40;39.30;;;;;;5012136;28;20256;-85
2023/06/04 05:21:11;;;;;;;1.40;1.30;;;21.30;39.30;;;;;;5021515;28;20804;-88
2023/06/04 05:23:38;;;;;;;2.03;1.30;;;21.30;39.30;;;;;;5031652;28;20463;-86
2023/06/04 05:26:05;;;;;;;1.23;1.13;;;21.30;39.40;;;;;;5000994;28;20470;-87
2023/06/04 05:28:33;;;;;;;1.20;1.10;;;21.30;39.30;;;;;;5018557;28;20462;-88
2023/06/04 05:30:59;;;;;;;1.20;1.10;;;21.40;39.50;;;;;;5019770;28;20518;-87
2023/06/04 05:33:30;;;;;;;1.30;1.20;;;21.30;39.50;;;;;;5013441;28;20461;-87
2023/06/04 05:35:57;;;;;;;1.23;1.13;;;21.40;39.60;;;;;;5027431;28;20461;-87
2023/06/04 05:38:26;;;;;;;1.10;1.00;;;21.40;39.60;;;;;;5028220;28;20460;-87
2023/06/04 05:40:54;;;;;;;1.20;1.10;;;21.40;39.60;;;;;;4998843;28;20463;-87
2023/06/04 05:43:21;;;;;;;1.30;1.00;;;21.40;39.60;;;;;;5026343;28;20533;-90
2023/06/04 05:45:46;;;;;;;1.13;1.03;;;21.40;39.60;;;;;;5006647;28;20554;-86
2023/06/04 05:48:12;;;;;;;1.37;1.27;;;21.40;39.60;;;;;;5000437;28;20486;-85
2023/06/04 05:50:38;;;;;;;1.57;1.10;;;21.40;39.60;;;;;;5018938;28;20265;-86
2023/06/04 05:53:03;;;;;;;1.30;1.20;;;21.40;39.60;;;;;;5026941;28;20352;-86
2023/06/04 05:55:29;;;;;;;1.30;1.20;;;21.40;39.70;;;;;;5000820;28;20218;-86
2023/06/04 05:57:55;;;;;;;1.23;1.13;;;21.40;39.60;;;;;;5027123;28;20230;-86
2023/06/04 06:00:21;;;;;;;1.87;1.30;;;21.40;39.70;;;;;;5020962;28;20890;-86
2023/06/04 06:02:48;;;;;;;1.10;1.00;;;21.40;39.60;;;;;;5020050;28;20505;-86
2023/06/04 06:05:15;;;;;;;2.23;1.00;;;21.40;39.60;;;;;;5030111;28;20459;-86
2023/06/04 06:07:41;;;;;;;1.40;1.30;;;21.40;39.60;;;;;;5033958;28;20518;-86
2023/06/04 06:10:07;;;;;;;1.30;1.20;;;21.40;39.60;;;;;;5025463;28;20543;-85
2023/06/04 06:12:32;;;;;;;1.50;1.40;;;21.40;39.70;;;;;;5015407;28;20223;-85
2023/06/04 06:14:58;;;;;;;1.40;1.23;;;21.40;39.60;;;;;;5033047;28;20585;-85
2023/06/04 06:17:23;;;;;;;1.37;1.27;;;21.40;39.60;;;;;;5015350;28;20218;-88
2023/06/04 06:19:49;;;;;;;1.23;1.13;;;21.40;39.60;;;;;;5022800;28;20222;-87
2023/06/04 06:22:15;;;;;;;2.83;1.20;;;21.40;39.60;;;;;;5038118;28;20226;-85
2023/06/04 06:24:40;;;;;;;1.20;1.10;;;21.40;39.70;;;;;;5021822;28;20218;-86
2023/06/04 06:27:06;;;;;;;0.90;0.90;;;21.40;39.70;;;;;;5027401;28;20225;-88
2023/06/04 06:29:33;;;;;;;1.50;1.20;;;21.40;39.60;;;;;;5007819;28;20678;-88
2023/06/04 06:31:59;;;;;;;1.90;1.30;;;21.40;39.70;;;;;;5015778;28;20222;-84
2023/06/04 06:34:24;;;;;;;1.63;1.20;;;21.40;39.60;;;;;;5023570;28;20513;-88
2023/06/04 06:36:50;;;;;;;1.20;1.10;;;21.40;39.70;;;;;;4996026;28;20637;-86
2023/06/04 06:39:16;;;;;;;1.20;1.10;;;21.40;39.70;;;;;;5006824;28;20258;-88
2023/06/04 06:41:42;;;;;;;1.30;1.20;;;21.40;39.70;;;;;;5019759;28;20227;-85
2023/06/04 06:44:07;;;;;;;1.30;1.20;;;21.40;39.60;;;;;;5024178;28;20249;-84
2023/06/04 06:46:33;;;;;;;2.60;1.30;;;21.40;39.60;;;;;;5011871;28;20210;-84
2023/06/04 06:48:58;;;;;;;1.30;1.20;;;21.40;39.70;;;;;;5017056;28;20230;-84
2023/06/04 06:51:24;;;;;;;1.30;1.20;;;21.40;39.70;;;;;;5024613;28;20260;-85
2023/06/04 06:53:53;;;;;;;2.00;1.10;;;21.40;39.70;;;;;;5032954;28;20819;-84
2023/06/04 06:56:18;;;;;;;1.40;1.30;;;21.40;39.60;;;;;;5014492;28;20215;-85
2023/06/04 06:58:45;;;;;;;1.20;1.10;;;21.40;39.70;;;;;;5015340;28;20460;-85
2023/06/04 07:01:11;;;;;;;1.00;0.90;;;21.50;39.70;;;;;;4998862;28;20558;-87
2023/06/04 07:03:39;;;;;;;1.30;1.20;;;21.40;39.70;;;;;;5007946;28;20541;-85
2023/06/04 07:06:05;;;;;;;1.10;0.90;;;21.40;39.70;;;;;;5021342;28;20458;-89
2023/06/04 07:08:31;;;;;;;1.20;1.10;;;21.40;39.70;;;;;;5015249;28;20510;-87
2023/06/04 07:10:57;;;;;;;1.30;1.20;;;21.40;39.60;;;;;;5015029;28;20584;-86
2023/06/04 07:13:22;;;;;;;1.30;1.10;;;21.40;39.70;;;;;;5015743;28;20315;-85
2023/06/04 07:15:48;;;;;;;2.00;1.30;;;21.40;39.70;;;;;;5025429;28;20260;-84
2023/06/04 07:18:14;;;;;;;2.23;1.20;;;21.40;39.70;;;;;;5023880;28;20214;-87
2023/06/04 07:20:40;;;;;;;1.20;1.10;;;21.40;39.60;;;;;;5024974;28;20707;-85
2023/06/04 07:23:06;;;;;;;1.30;1.20;;;21.40;39.60;;;;;;5019365;28;20234;-85
2023/06/04 07:25:32;;;;;;;1.27;1.17;;;21.50;39.70;;;;;;5022539;28;20226;-84
2023/06/04 07:27:58;;;;;;;1.23;1.13;;;21.50;39.70;;;;;;5020460;28;20472;-84
2023/06/04 07:30:24;;;;;;;1.50;1.20;;;21.40;39.70;;;;;;5015433;28;20230;-85
2023/06/04 07:32:50;;;;;;;1.20;1.10;;;21.50;39.70;;;;;;5019580;28;20728;-85
2023/06/04 07:35:16;;;;;;;1.30;1.20;;;21.50;39.70;;;;;;5032955;28;20459;-85
2023/06/04 07:37:44;;;;;;;1.67;1.10;;;21.50;39.80;;;;;;5020891;28;20314;-84
2023/06/04 07:40:11;;;;;;;1.20;1.10;;;21.50;39.70;;;;;;5032721;28;20645;-85
2023/06/04 07:42:37;;;;;;;1.20;1.10;;;21.50;39.80;;;;;;5029838;28;20459;-84
2023/06/04 07:45:03;;;;;;;1.40;1.30;;;21.50;39.80;;;;;;5017484;28;20475;-84
2023/06/04 07:47:28;;;;;;;1.50;1.40;;;21.50;39.70;;;;;;5007756;28;20223;-85
2023/06/04 07:49:54;;;;;;;1.57;1.47;;;21.50;39.80;;;;;;5020899;28;20455;-86
2023/06/04 07:52:22;;;;;;;1.53;1.20;;;21.50;39.70;;;;;;5005059;28;20230;-86
2023/06/04 07:54:48;;;;;;;1.40;1.30;;;21.50;39.70;;;;;;5012266;28;20226;-86
2023/06/04 07:57:13;;;;;;;2.60;1.30;;;21.50;39.70;;;;;;5010874;28;20463;-85
2023/06/04 07:59:39;;;;;;;1.40;1.30;;;21.50;39.70;;;;;;5000303;28;20570;-86
2023/06/04 08:02:05;;;;;;;1.37;1.20;;;21.50;39.80;;;;;;5032769;28;20222;-84
2023/06/04 08:04:31;;;;;;;1.33;1.23;;;21.50;39.80;;;;;;5027457;28;20214;-85
2023/06/04 08:06:56;;;;;;;1.20;1.10;;;21.50;39.80;;;;;;5018470;28;20522;-85
2023/06/04 08:09:22;;;;;;;1.30;1.20;;;21.50;39.80;;;;;;4999952;28;20235;-85
2023/06/04 08:11:49;;;;;;;1.30;1.20;;;21.50;39.70;;;;;;5013015;28;20622;-85
2023/06/04 08:14:14;;;;;;;1.43;1.30;;;21.50;39.70;;;;;;5006893;28;20948;-84
2023/06/04 08:16:40;;;;;;;1.10;1.00;;;21.50;39.70;;;;;;5012613;28;20608;-85
2023/06/04 08:19:07;;;;;;;1.50;1.40;;;21.50;39.70;;;;;;4990013;28;20223;-85
2023/06/04 08:21:33;;;;;;;1.20;1.10;;;21.50;39.70;;;;;;5019695;28;20304;-86
2023/06/04 08:23:59;;;;;;;1.20;1.10;;;21.50;39.70;;;;;;5012808;28;20467;-85
2023/06/04 08:26:26;;;;;;;1.30;1.20;;;21.50;39.80;;;;;;5015864;28;20273;-85
2023/06/04 08:28:52;;;;;;;1.80;1.20;;;21.50;39.70;;;;;;5029434;28;20555;-85
2023/06/04 08:31:18;;;;;;;1.20;1.10;;;21.50;39.70;;;;;;5024661;28;20471;-85
2023/06/04 08:33:47;;;;;;;3.70;1.20;;;21.50;39.70;;;;;;5021192;28;20221;-85
2023/06/04 08:36:13;;;;;;;1.40;1.30;;;21.50;39.70;;;;;;5024513;28;20222;-84
2023/06/04 08:38:38;;;;;;;1.30;1.20;;;21.50;39.70;;;;;;5009365;28;20529;-86
2023/06/04 08:41:28;;;;;;;1.63;1.30;;;21.50;39.70;;;;;;5016778;28;20210;-84
2023/06/04 08:43:56;;;;;;;1.37;1.27;;;21.50;39.70;;;;;;5015643;28;20625;-84
2023/06/04 08:46:22;;;;;;;1.30;1.20;;;21.50;39.70;;;;;;5014258;28;20467;-85
2023/06/04 08:48:50;;;;;;;1.93;1.30;;;21.50;39.60;;;;;;5011449;28;20472;-85
2023/06/04 08:51:16;;;;;;;1.37;1.27;;;21.60;39.70;;;;;;5013189;28;20439;-85
2023/06/04 08:53:42;;;;;;;1.17;1.07;;;21.50;39.60;;;;;;5026394;28;21443;-86
2023/06/04 08:56:08;;;;;;;1.30;1.20;;;21.60;39.60;;;;;;5021339;28;20482;-86
2023/06/04 08:58:36;;;;;;;1.30;1.20;;;21.60;39.60;;;;;;5008104;28;20563;-86
2023/06/04 09:01:02;;;;;;;1.33;1.23;;;21.60;39.60;;;;;;5009871;28;20231;-86
2023/06/04 09:03:31;;;;;;;1.23;1.13;;;21.60;39.50;;;;;;5018993;28;20463;-84
2023/06/04 09:05:57;;;;;;;1.30;1.20;;;21.60;39.60;;;;;;4995872;28;21026;-84
2023/06/04 09:08:24;;;;;;;1.40;1.20;;;21.60;39.50;;;;;;5011569;28;22675;-85
2023/06/04 09:10:52;;;;;;;3.30;1.30;;;21.60;40.00;;;;;;5027831;28;20478;-85
2023/06/04 09:13:21;;;;;;;1.30;1.20;;;21.60;39.50;;;;;;5018909;28;20524;-83
2023/06/04 09:15:57;;;;;;;1.70;1.33;;;21.60;39.30;;;;;;5014591;28;20459;-90
2023/06/04 09:18:26;;;;;;;1.40;1.30;;;21.60;39.30;;;;;;4997697;28;20456;-90
2023/06/04 09:21:05;;;;;;;1.40;1.30;;;21.60;39.30;;;;;;5014111;28;20792;-93
2023/06/04 09:23:51;;;;;;;1.93;1.40;;;21.60;39.30;;;;;;4986725;28;20539;-89
2023/06/04 09:26:16;;;;;;;1.40;1.30;;;21.60;39.30;;;;;;5006352;28;20480;-84
2023/06/04 09:28:43;;;;;;;1.67;1.30;;;21.60;39.40;;;;;;5023228;28;20801;-85
2023/06/04 09:31:13;;;;;;;2.50;1.40;;;21.60;39.30;;;;;;4995802;28;20246;-85
2023/06/04 09:33:46;;;;;;;1.37;1.27;;;21.60;39.30;;;;;;5013658;28;20448;-87
2023/06/04 09:36:11;;;;;;;1.40;1.30;;;21.70;39.30;;;;;;4998721;28;20471;-84
2023/06/04 09:38:38;;;;;;;1.40;1.30;;;21.70;39.30;;;;;;5003598;28;20560;-84
2023/06/04 09:41:04;;;;;;;1.30;1.20;;;21.70;39.30;;;;;;5028270;28;20272;-85
2023/06/04 09:43:32;;;;;;;1.40;1.30;;;21.70;39.20;;;;;;5033138;28;20447;-85
2023/06/04 09:46:11;;;;;;;1.37;1.27;;;21.70;39.20;;;;;;5008249;28;20545;-88
2023/06/04 09:48:37;;;;;;;6.03;1.50;;;21.70;39.20;;;;;;5022127;28;20478;-86
2023/06/04 09:51:11;;;;;;;3.77;1.70;;;21.70;39.20;;;;;;5022329;28;20459;-85
2023/06/04 09:53:38;;;;;;;1.60;1.40;;;21.70;39.10;;;;;;5024580;28;20249;-83
2023/06/04 09:56:06;;;;;;;2.17;1.70;;;21.70;39.10;;;;;;5025619;28;20459;-84
2023/06/04 09:58:32;;;;;;;2.57;1.60;;;21.70;39.10;;;;;;5028878;28;20478;-84
2023/06/04 10:00:59;;;;;;;1.90;1.80;;;21.70;39.20;;;;;;5024797;28;21072;-84
2023/06/04 10:03:26;;;;;;;6.23;2.33;;;21.70;39.20;;;;;;5008675;28;20809;-92
2023/06/04 10:05:57;;;;;;;2.03;1.70;;;21.70;39.20;;;;;;5020599;28;20461;-83
2023/06/04 10:08:25;;;;;;;2.33;1.63;;;21.70;39.10;;;;;;5026699;28;20464;-84
2023/06/04 10:10:54;;;;;;;1.97;1.60;;;21.70;39.10;;;;;;5025376;28;20451;-82
2023/06/04 10:13:20;;;;;;;4.20;1.77;;;21.70;39.10;;;;;;5021762;28;20722;-83
2023/06/04 10:15:47;;;;;;;4.83;2.43;;;21.70;39.10;;;;;;5025271;28;21030;-86
2023/06/04 10:18:15;;;;;;;1.60;1.50;;;21.70;39.10;;;;;;5029021;28;20462;-86
2023/06/04 10:20:41;;;;;;;2.00;1.60;;;21.70;39.10;;;;;;5028082;28;20486;-84
2023/06/04 10:23:07;;;;;;;2.10;1.40;;;21.70;39.10;;;;;;5025639;28;20443;-86
2023/06/04 10:25:35;;;;;;;2.37;1.67;;;21.70;39.00;;;;;;5025776;28;20225;-84
2023/06/04 10:28:02;;;;;;;1.70;1.60;;;21.70;39.00;;;;;;5014437;28;20513;-89
2023/06/04 10:30:29;;;;;;;2.20;1.70;;;21.70;39.00;;;;;;5019852;28;20464;-84
2023/06/04 10:32:57;;;;;;;1.70;1.60;;;21.70;39.10;;;;;;5012787;28;20515;-83
2023/06/04 10:35:36;;;;;;;1.73;1.63;;;21.70;39.10;;;;;;5022069;28;20455;-83
2023/06/04 10:38:09;;;;;;;2.47;1.53;;;21.70;39.00;;;;;;5027875;28;20462;-83
2023/06/04 10:40:36;;;;;;;4.73;1.63;;;21.70;39.10;;;;;;5027566;28;20468;-83
2023/06/04 10:43:09;;;;;;;2.10;1.63;;;21.70;39.10;;;;;;5018157;28;20471;-83
2023/06/04 10:45:36;;;;;;;2.10;1.60;;;21.70;39.10;;;;;;5028284;28;20458;-84
2023/06/04 10:48:02;;;;;;;1.80;1.67;;;21.70;39.00;;;;;;5005880;28;20927;-85
2023/06/04 10:50:28;;;;;;;1.93;1.60;;;21.70;39.10;;;;;;5024702;28;21025;-83
2023/06/04 10:52:55;;;;;;;1.90;1.70;;;21.70;39.10;;;;;;5000770;28;20471;-88
2023/06/04 10:55:21;;;;;;;1.83;1.60;;;21.70;39.10;;;;;;4999197;28;20299;-85
2023/06/04 10:58:00;;;;;;;2.40;1.43;;;21.70;39.10;;;;;;5025102;28;20960;-83
2023/06/04 11:00:41;;;;;;;2.67;1.40;;;21.70;39.10;;;;;;5025344;28;20241;-83
2023/06/04 11:03:07;;;;;;;1.97;1.77;;;21.70;39.10;;;;;;5023243;28;20982;-84
2023/06/04 11:05:42;;;;;;;2.90;1.70;;;21.70;39.10;;;;;;5021244;28;20826;-84
2023/06/04 11:08:09;;;;;;;2.70;1.50;;;21.70;39.20;;;;;;5023768;28;20572;-83
2023/06/04 11:10:38;;;;;;;1.70;1.60;;;21.70;39.20;;;;;;5033104;28;20540;-88
2023/06/04 11:13:04;;;;;;;1.70;1.60;;;21.70;39.20;;;;;;5010344;28;20444;-84
2023/06/04 11:15:43;;;;;;;1.80;1.70;;;21.70;39.20;;;;;;5007435;28;20883;-83
2023/06/04 11:18:22;;;;;;;1.80;1.70;;;21.70;39.10;;;;;;5025536;28;20495;-84
2023/06/04 11:20:50;;;;;;;1.50;1.40;;;21.70;39.10;;;;;;4999880;28;20483;-84
2023/06/04 11:23:16;;;;;;;1.60;1.50;;;21.70;39.10;;;;;;5027481;28;20478;-83
2023/06/04 11:25:43;;;;;;;1.53;1.43;;;21.70;39.10;;;;;;5027563;28;20590;-85
2023/06/04 11:28:16;;;;;;;1.50;1.40;;;21.70;39.10;;;;;;5004746;28;20480;-86
2023/06/04 11:30:42;;;;;;;1.63;1.53;;;21.80;39.20;;;;;;5011096;28;20475;-84
2023/06/04 11:33:07;;;;;;;4.93;1.67;;;21.80;39.20;;;;;;5018062;28;20474;-87
2023/06/04 11:35:41;;;;;;;2.80;1.40;;;21.80;39.20;;;;;;5026365;28;20226;-87
2023/06/04 11:38:07;;;;;;;1.40;1.30;;;21.80;39.20;;;;;;5008645;28;20223;-84
2023/06/04 11:40:32;;;;;;;1.80;1.70;;;21.80;39.20;;;;;;4999227;28;20951;-82
2023/06/04 11:42:58;;;;;;;1.60;1.50;;;21.80;39.10;;;;;;5024211;28;20260;-83
2023/06/04 11:45:25;;;;;;;2.10;1.63;;;21.80;39.10;;;;;;5023431;28;21219;-82
2023/06/04 11:47:55;;;;;;;1.50;1.40;;;21.80;39.10;;;;;;5009960;28;20253;-82
2023/06/04 11:50:23;;;;;;;1.60;1.50;;;21.80;39.10;;;;;;5007985;28;20466;-84
2023/06/04 11:52:49;;;;;;;1.43;1.33;;;21.80;39.20;;;;;;5014468;28;20467;-83
2023/06/04 11:55:17;;;;;;;1.70;1.40;;;21.80;39.10;;;;;;5014904;28;20472;-85
2023/06/04 11:57:43;;;;;;;1.50;1.40;;;21.80;39.10;;;;;;5009124;28;20221;-82
2023/06/04 12:00:09;;;;;;;1.70;1.60;;;21.80;39.10;;;;;;5029269;28;20462;-84
2023/06/04 12:02:49;;;;;;;1.60;1.50;;;21.80;39.10;;;;;;5027647;28;20612;-82
2023/06/04 12:05:15;;;;;;;1.50;1.40;;;21.80;39.10;;;;;;5026166;28;20482;-84
2023/06/04 12:07:41;;;;;;;1.60;1.50;;;21.80;39.10;;;;;;5025334;28;20513;-83
2023/06/04 12:10:08;;;;;;;1.60;1.50;;;21.80;39.10;;;;;;5019077;28;20550;-87
2023/06/04 12:12:34;;;;;;;1.50;1.40;;;21.80;39.10;;;;;;5024837;28;20249;-84
2023/06/04 12:15:00;;;;;;;1.60;1.50;;;21.80;39.10;;;;;;5017883;28;20516;-83
2023/06/04 12:17:26;;;;;;;1.87;1.37;;;21.80;39.10;;;;;;5022601;28;20435;-83
2023/06/04 12:19:52;;;;;;;1.77;1.40;;;21.80;39.10;;;;;;5006107;28;20233;-87
2023/06/04 12:22:18;;;;;;;2.10;1.60;;;21.80;39.10;;;;;;5002938;28;20822;-86
2023/06/04 12:24:55;;;;;;;4.53;1.60;;;21.80;39.10;;;;;;5026821;28;20459;-83
2023/06/04 12:27:25;;;;;;;1.67;1.40;;;21.80;39.10;;;;;;5019042;28;20464;-85
2023/06/04 12:30:07;;;;;;;1.40;1.30;;;21.80;39.10;;;;;;5023851;28;21057;-82
2023/06/04 12:32:36;;;;;;;1.63;1.50;;;21.80;39.10;;;;;;5020301;28;20545;-88
2023/06/04 12:35:02;;;;;;;3.70;1.90;;;21.80;39.10;;;;;;5024952;28;21036;-82
2023/06/04 12:37:28;;;;;;;1.93;1.70;;;21.80;39.10;;;;;;5028178;28;20455;-82
2023/06/04 12:39:54;;;;;;;2.33;1.87;;;21.80;39.10;;;;;;5019137;28;20471;-86
2023/06/04 12:42:20;;;;;;;3.10;1.60;;;21.80;39.10;;;;;;5008456;28;20403;-83
2023/06/04 12:44:47;;;;;;;3.03;1.63;;;21.80;39.10;;;;;;5014301;28;20504;-83
2023/06/04 12:47:13;;;;;;;2.03;1.70;;;21.80;39.10;;;;;;5018773;28;20222;-90
2023/06/04 12:49:38;;;;;;;1.73;1.63;;;21.80;39.10;;;;;;5016704;28;21072;-84